Little Rock, Iowa
Current Conditions -  °F | °C
As of 5:55 PM on Sunday 21 Dec 2014 (Local Time) from KSHL Reporting Station
Haze Haze  
Wind Chill: 27°   Ceiling: 400
Heat Index: 37°   Visibility: 3mi
Dew Point: 37°   Wind: 20mph
Humidity: 100%   Direction: 190°S
Pressure: 29.63"   Gusts: 28mph
Location:  43.44°N, 95.88°W
Report Text: KSHL 212355Z AUTO 19017G24KT 3SM BR OVC004 03/03 A2963 RMK AO2
Loading
Personal Weather Stations






























Interactive Weather Map New forecast layout! Learn more

10-Day Weather Forecast

Advertisements
Track Severe Weather on mobile